sensor_id;sensor_type;location;lat;lon;timestamp;pressure;altitude;pressure_sealevel;temperature;humidity
40315;BME280;26021;45.640;11.302;2024-03-08T00:00:40;98905.69;;;7.51;100.00
40315;BME280;26021;45.640;11.302;2024-03-08T00:03:07;98880.69;;;7.44;100.00
40315;BME280;26021;45.640;11.302;2024-03-08T00:05:35;98901.88;;;7.54;100.00
40315;BME280;26021;45.640;11.302;2024-03-08T00:08:01;98905.53;;;7.53;100.00
40315;BME280;26021;45.640;11.302;2024-03-08T00:10:26;98898.22;;;7.55;100.00
40315;BME280;26021;45.640;11.302;2024-03-08T00:12:54;98905.06;;;7.57;100.00
40315;BME280;26021;45.640;11.302;2024-03-08T00:15:19;98901.88;;;7.54;100.00
40315;BME280;26021;45.640;11.302;2024-03-08T00:17:45;98908.75;;;7.64;100.00
40315;BME280;26021;45.640;11.302;2024-03-08T00:20:11;98897.59;;;7.61;100.00
40315;BME280;26021;45.640;11.302;2024-03-08T00:22:38;98900.94;;;7.63;100.00
40315;BME280;26021;45.640;11.302;2024-03-08T00:25:05;98901.88;;;7.54;100.00
40315;BME280;26021;45.640;11.302;2024-03-08T00:27:31;98878.69;;;7.46;100.00
40315;BME280;26021;45.640;11.302;2024-03-08T00:29:57;98895.25;;;7.58;100.00
40315;BME280;26021;45.640;11.302;2024-03-08T00:32:23;98895.66;;;7.45;100.00
40315;BME280;26021;45.640;11.302;2024-03-08T00:34:53;98897.75;;;7.59;100.00
40315;BME280;26021;45.640;11.302;2024-03-08T00:37:19;98896.53;;;7.54;100.00
40315;BME280;26021;45.640;11.302;2024-03-08T00:39:45;98892.44;;;7.42;100.00
40315;BME280;26021;45.640;11.302;2024-03-08T00:42:10;98893.50;;;7.49;100.00
40315;BME280;26021;45.640;11.302;2024-03-08T00:44:36;98897.22;;;7.56;100.00
40315;BME280;26021;45.640;11.302;2024-03-08T00:47:01;98893.03;;;7.53;100.00
40315;BME280;26021;45.640;11.302;2024-03-08T00:49:27;98889.50;;;7.45;100.00
40315;BME280;26021;45.640;11.302;2024-03-08T00:51:52;98896.72;;;7.34;100.00
40315;BME280;26021;45.640;11.302;2024-03-08T00:54:18;98887.44;;;7.39;100.00
40315;BME280;26021;45.640;11.302;2024-03-08T00:56:43;98881.47;;;7.19;100.00
40315;BME280;26021;45.640;11.302;2024-03-08T00:59:11;98890.34;;;7.27;100.00
40315;BME280;26021;45.640;11.302;2024-03-08T01:01:45;98891.28;;;7.18;100.00
40315;BME280;26021;45.640;11.302;2024-03-08T01:04:11;98889.25;;;7.38;100.00
40315;BME280;26021;45.640;11.302;2024-03-08T01:06:37;98887.69;;;7.27;100.00
40315;BME280;26021;45.640;11.302;2024-03-08T01:09:02;98896.09;;;7.41;100.00
40315;BME280;26021;45.640;11.302;2024-03-08T01:11:28;98889.88;;;7.32;100.00
40315;BME280;26021;45.640;11.302;2024-03-08T01:13:53;98887.94;;;7.42;100.00
40315;BME280;26021;45.640;11.302;2024-03-08T01:16:19;98884.22;;;7.53;100.00
40315;BME280;26021;45.640;11.302;2024-03-08T01:18:46;98866.94;;;7.57;100.00
40315;BME280;26021;45.640;11.302;2024-03-08T01:21:12;98851.53;;;7.43;100.00
40315;BME280;26021;45.640;11.302;2024-03-08T01:23:38;98853.75;;;7.47;100.00
40315;BME280;26021;45.640;11.302;2024-03-08T01:26:03;98862.34;;;7.41;100.00
40315;BME280;26021;45.640;11.302;2024-03-08T01:28:30;98863.13;;;7.59;100.00
40315;BME280;26021;45.640;11.302;2024-03-08T01:30:55;98854.13;;;7.52;100.00
40315;BME280;26021;45.640;11.302;2024-03-08T01:33:25;98857.72;;;7.43;100.00
40315;BME280;26021;45.640;11.302;2024-03-08T01:35:51;98858.75;;;7.50;100.00
40315;BME280;26021;45.640;11.302;2024-03-08T01:38:17;98869.41;;;7.50;100.00
40315;BME280;26021;45.640;11.302;2024-03-08T01:40:43;98846.63;;;7.30;100.00
40315;BME280;26021;45.640;11.302;2024-03-08T01:43:27;98866.00;;;7.40;100.00
40315;BME280;26021;45.640;11.302;2024-03-08T01:45:57;98851.41;;;7.44;100.00
40315;BME280;26021;45.640;11.302;2024-03-08T01:48:27;98855.19;;;7.42;100.00
40315;BME280;26021;45.640;11.302;2024-03-08T01:50:55;98841.19;;;7.40;100.00
40315;BME280;26021;45.640;11.302;2024-03-08T01:53:21;98843.13;;;7.29;100.00
40315;BME280;26021;45.640;11.302;2024-03-08T01:55:48;98839.91;;;7.18;100.00
40315;BME280;26021;45.640;11.302;2024-03-08T01:58:14;98845.78;;;7.29;100.00
40315;BME280;26021;45.640;11.302;2024-03-08T02:00:47;98848.97;;;7.33;100.00
40315;BME280;26021;45.640;11.302;2024-03-08T02:03:18;98838.53;;;7.40;100.00
40315;BME280;26021;45.640;11.302;2024-03-08T02:05:44;98841.94;;;7.24;100.00
40315;BME280;26021;45.640;11.302;2024-03-08T02:08:09;98841.16;;;7.31;100.00
40315;BME280;26021;45.640;11.302;2024-03-08T02:10:46;98842.00;;;7.32;100.00
40315;BME280;26021;45.640;11.302;2024-03-08T02:13:11;98841.81;;;7.33;100.00
40315;BME280;26021;45.640;11.302;2024-03-08T02:15:57;98844.59;;;7.24;100.00
40315;BME280;26021;45.640;11.302;2024-03-08T02:18:30;98836.47;;;7.25;100.00
40315;BME280;26021;45.640;11.302;2024-03-08T02:20:57;98832.50;;;7.29;100.00
40315;BME280;26021;45.640;11.302;2024-03-08T02:23:23;98827.69;;;7.33;100.00
40315;BME280;26021;45.640;11.302;2024-03-08T02:25:50;98831.44;;;7.22;100.00
40315;BME280;26021;45.640;11.302;2024-03-08T02:28:16;98827.06;;;7.39;100.00
40315;BME280;26021;45.640;11.302;2024-03-08T02:30:44;98827.59;;;7.43;100.00
40315;BME280;26021;45.640;11.302;2024-03-08T02:33:09;98806.78;;;7.12;100.00
40315;BME280;26021;45.640;11.302;2024-03-08T02:35:35;98829.56;;;7.41;100.00
40315;BME280;26021;45.640;11.302;2024-03-08T02:38:03;98830.09;;;7.18;100.00
40315;BME280;26021;45.640;11.302;2024-03-08T02:40:29;98830.41;;;7.15;100.00
40315;BME280;26021;45.640;11.302;2024-03-08T02:42:54;98844.69;;;7.14;100.00
40315;BME280;26021;45.640;11.302;2024-03-08T02:45:20;98843.59;;;6.99;100.00
40315;BME280;26021;45.640;11.302;2024-03-08T02:47:45;98836.38;;;6.91;100.00
40315;BME280;26021;45.640;11.302;2024-03-08T02:50:11;98841.50;;;7.11;100.00
40315;BME280;26021;45.640;11.302;2024-03-08T02:52:37;98844.72;;;6.96;100.00
40315;BME280;26021;45.640;11.302;2024-03-08T02:55:02;98797.66;;;6.53;100.00
40315;BME280;26021;45.640;11.302;2024-03-08T02:57:28;98843.38;;;6.75;100.00
40315;BME280;26021;45.640;11.302;2024-03-08T02:59:54;98838.81;;;6.85;100.00
40315;BME280;26021;45.640;11.302;2024-03-08T03:02:19;98823.53;;;6.87;100.00
40315;BME280;26021;45.640;11.302;2024-03-08T03:04:45;98838.16;;;7.09;100.00
40315;BME280;26021;45.640;11.302;2024-03-08T03:07:10;98841.19;;;7.14;100.00
40315;BME280;26021;45.640;11.302;2024-03-08T03:09:36;98842.97;;;7.31;100.00
40315;BME280;26021;45.640;11.302;2024-03-08T03:12:02;98838.66;;;7.30;100.00
40315;BME280;26021;45.640;11.302;2024-03-08T03:14:28;98846.25;;;7.25;100.00
40315;BME280;26021;45.640;11.302;2024-03-08T03:16:53;98845.75;;;7.21;100.00
40315;BME280;26021;45.640;11.302;2024-03-08T03:19:19;98844.03;;;6.94;100.00
40315;BME280;26021;45.640;11.302;2024-03-08T03:21:45;98847.09;;;6.82;100.00
40315;BME280;26021;45.640;11.302;2024-03-08T03:24:11;98844.03;;;6.94;100.00
40315;BME280;26021;45.640;11.302;2024-03-08T03:26:40;98848.44;;;7.04;100.00
40315;BME280;26021;45.640;11.302;2024-03-08T03:29:06;98845.00;;;7.11;100.00
40315;BME280;26021;45.640;11.302;2024-03-08T03:31:31;98853.94;;;6.84;100.00
40315;BME280;26021;45.640;11.302;2024-03-08T03:33:57;98848.72;;;7.18;100.00
40315;BME280;26021;45.640;11.302;2024-03-08T03:36:30;98798.78;;;6.86;100.00
40315;BME280;26021;45.640;11.302;2024-03-08T03:38:56;98856.22;;;6.79;100.00
40315;BME280;26021;45.640;11.302;2024-03-08T03:41:31;98821.19;;;6.66;100.00
40315;BME280;26021;45.640;11.302;2024-03-08T03:43:57;98861.59;;;6.87;100.00
40315;BME280;26021;45.640;11.302;2024-03-08T03:46:22;98864.25;;;6.87;100.00
40315;BME280;26021;45.640;11.302;2024-03-08T03:48:48;98866.22;;;6.85;100.00
40315;BME280;26021;45.640;11.302;2024-03-08T03:51:13;98868.81;;;6.95;100.00
40315;BME280;26021;45.640;11.302;2024-03-08T03:53:40;98871.00;;;6.99;100.00
40315;BME280;26021;45.640;11.302;2024-03-08T03:56:06;98872.59;;;7.10;100.00
40315;BME280;26021;45.640;11.302;2024-03-08T03:58:32;98868.97;;;6.93;100.00
40315;BME280;26021;45.640;11.302;2024-03-08T04:00:58;98859.59;;;7.07;100.00
40315;BME280;26021;45.640;11.302;2024-03-08T04:03:23;98820.03;;;6.68;100.00
40315;BME280;26021;45.640;11.302;2024-03-08T04:05:49;98840.25;;;6.79;100.00
40315;BME280;26021;45.640;11.302;2024-03-08T04:08:14;98857.28;;;6.86;100.00
40315;BME280;26021;45.640;11.302;2024-03-08T04:10:40;98865.06;;;7.06;100.00
40315;BME280;26021;45.640;11.302;2024-03-08T04:13:09;98844.47;;;7.08;100.00
40315;BME280;26021;45.640;11.302;2024-03-08T04:15:37;98852.63;;;6.88;100.00
40315;BME280;26021;45.640;11.302;2024-03-08T04:18:03;98853.63;;;6.87;100.00
40315;BME280;26021;45.640;11.302;2024-03-08T04:20:29;98853.19;;;6.74;100.00
40315;BME280;26021;45.640;11.302;2024-03-08T04:22:55;98857.84;;;6.62;100.00
40315;BME280;26021;45.640;11.302;2024-03-08T04:25:21;98857.28;;;6.86;100.00
40315;BME280;26021;45.640;11.302;2024-03-08T04:27:47;98855.72;;;7.01;100.00
40315;BME280;26021;45.640;11.302;2024-03-08T04:30:13;98860.84;;;6.95;100.00
40315;BME280;26021;45.640;11.302;2024-03-08T04:32:39;98858.25;;;7.03;100.00
40315;BME280;26021;45.640;11.302;2024-03-08T04:35:06;98847.84;;;6.92;100.00
40315;BME280;26021;45.640;11.302;2024-03-08T04:37:33;98862.56;;;7.04;100.00
40315;BME280;26021;45.640;11.302;2024-03-08T04:39:59;98814.19;;;6.65;100.00
40315;BME280;26021;45.640;11.302;2024-03-08T04:42:25;98867.56;;;7.07;100.00
40315;BME280;26021;45.640;11.302;2024-03-08T04:45:01;98860.38;;;6.99;100.00
40315;BME280;26021;45.640;11.302;2024-03-08T04:47:27;98868.06;;;6.85;100.00
40315;BME280;26021;45.640;11.302;2024-03-08T04:49:52;98870.78;;;6.75;100.00
40315;BME280;26021;45.640;11.302;2024-03-08T04:52:19;98875.84;;;6.68;100.00
40315;BME280;26021;45.640;11.302;2024-03-08T04:54:45;98871.94;;;6.73;100.00
40315;BME280;26021;45.640;11.302;2024-03-08T04:57:10;98838.13;;;6.47;100.00
40315;BME280;26021;45.640;11.302;2024-03-08T04:59:36;98861.31;;;6.73;100.00
40315;BME280;26021;45.640;11.302;2024-03-08T05:02:02;98859.63;;;6.89;100.00
40315;BME280;26021;45.640;11.302;2024-03-08T05:04:27;98857.19;;;6.78;100.00
40315;BME280;26021;45.640;11.302;2024-03-08T05:06:54;98860.59;;;6.53;100.00
40315;BME280;26021;45.640;11.302;2024-03-08T05:09:20;98872.28;;;6.60;100.00
40315;BME280;26021;45.640;11.302;2024-03-08T05:11:46;98871.97;;;6.63;100.00
40315;BME280;26021;45.640;11.302;2024-03-08T05:14:13;98876.56;;;6.88;100.00
40315;BME280;26021;45.640;11.302;2024-03-08T05:16:45;98855.56;;;6.50;100.00
40315;BME280;26021;45.640;11.302;2024-03-08T05:19:16;98864.84;;;6.46;100.00
40315;BME280;26021;45.640;11.302;2024-03-08T05:21:46;98858.66;;;6.73;100.00
40315;BME280;26021;45.640;11.302;2024-03-08T05:24:12;98867.84;;;6.78;100.00
40315;BME280;26021;45.640;11.302;2024-03-08T05:26:38;98868.97;;;6.76;100.00
40315;BME280;26021;45.640;11.302;2024-03-08T05:29:04;98871.94;;;6.73;100.00
40315;BME280;26021;45.640;11.302;2024-03-08T05:31:31;98871.03;;;6.82;100.00
40315;BME280;26021;45.640;11.302;2024-03-08T05:34:01;98861.69;;;6.78;100.00
40315;BME280;26021;45.640;11.302;2024-03-08T05:36:26;98873.59;;;6.74;100.00
40315;BME280;26021;45.640;11.302;2024-03-08T05:38:52;98876.13;;;6.75;100.00
40315;BME280;26021;45.640;11.302;2024-03-08T05:41:17;98875.31;;;6.65;100.00
40315;BME280;26021;45.640;11.302;2024-03-08T05:43:43;98875.84;;;6.68;100.00
40315;BME280;26021;45.640;11.302;2024-03-08T05:46:09;98863.16;;;6.62;100.00
40315;BME280;26021;45.640;11.302;2024-03-08T05:48:36;98855.13;;;6.54;100.00
40315;BME280;26021;45.640;11.302;2024-03-08T05:51:02;98869.63;;;6.42;100.00
40315;BME280;26021;45.640;11.302;2024-03-08T05:53:28;98867.94;;;6.41;100.00
40315;BME280;26021;45.640;11.302;2024-03-08T05:55:58;98875.97;;;6.31;100.00
40315;BME280;26021;45.640;11.302;2024-03-08T05:58:24;98885.47;;;6.34;100.00
40315;BME280;26021;45.640;11.302;2024-03-08T06:00:49;98883.63;;;6.34;100.00
40315;BME280;26021;45.640;11.302;2024-03-08T06:03:15;98886.16;;;6.36;100.00
40315;BME280;26021;45.640;11.302;2024-03-08T06:05:40;98832.06;;;6.10;100.00
40315;BME280;26021;45.640;11.302;2024-03-08T06:08:07;98889.97;;;6.51;100.00
40315;BME280;26021;45.640;11.302;2024-03-08T06:10:33;98845.63;;;6.34;100.00
40315;BME280;26021;45.640;11.302;2024-03-08T06:12:58;98884.19;;;6.56;100.00
40315;BME280;26021;45.640;11.302;2024-03-08T06:15:25;98879.56;;;6.58;100.00
40315;BME280;26021;45.640;11.302;2024-03-08T06:17:51;98906.22;;;6.48;100.00
40315;BME280;26021;45.640;11.302;2024-03-08T06:20:18;98892.31;;;6.54;100.00
40315;BME280;26021;45.640;11.302;2024-03-08T06:22:43;98895.66;;;6.56;100.00
40315;BME280;26021;45.640;11.302;2024-03-08T06:25:13;98861.56;;;6.34;100.00
40315;BME280;26021;45.640;11.302;2024-03-08T06:27:40;98892.91;;;6.48;100.00
40315;BME280;26021;45.640;11.302;2024-03-08T06:30:08;98898.22;;;6.48;100.00
40315;BME280;26021;45.640;11.302;2024-03-08T06:32:35;98908.78;;;6.40;100.00
40315;BME280;26021;45.640;11.302;2024-03-08T06:35:01;98908.72;;;6.50;100.00
40315;BME280;26021;45.640;11.302;2024-03-08T06:37:27;98918.88;;;6.36;100.00
40315;BME280;26021;45.640;11.302;2024-03-08T06:39:53;98915.69;;;6.51;100.00
40315;BME280;26021;45.640;11.302;2024-03-08T06:42:20;98909.84;;;6.47;100.00
40315;BME280;26021;45.640;11.302;2024-03-08T06:44:45;98901.72;;;6.49;100.00
40315;BME280;26021;45.640;11.302;2024-03-08T06:47:16;98916.22;;;6.36;100.00
40315;BME280;26021;45.640;11.302;2024-03-08T06:49:42;98912.56;;;6.37;100.00
40315;BME280;26021;45.640;11.302;2024-03-08T06:52:09;98906.88;;;6.32;100.00
40315;BME280;26021;45.640;11.302;2024-03-08T06:54:35;98909.66;;;6.31;100.00
40315;BME280;26021;45.640;11.302;2024-03-08T06:57:04;98907.72;;;6.51;100.00
40315;BME280;26021;45.640;11.302;2024-03-08T06:59:33;98914.50;;;6.63;100.00
40315;BME280;26021;45.640;11.302;2024-03-08T07:02:01;98912.91;;;6.52;100.00
40315;BME280;26021;45.640;11.302;2024-03-08T07:04:26;98909.69;;;6.49;100.00
40315;BME280;26021;45.640;11.302;2024-03-08T07:06:55;98915.94;;;6.57;100.00
40315;BME280;26021;45.640;11.302;2024-03-08T07:09:22;98914.13;;;6.58;100.00
40315;BME280;26021;45.640;11.302;2024-03-08T07:11:48;98918.06;;;6.54;100.00
40315;BME280;26021;45.640;11.302;2024-03-08T07:14:23;98922.38;;;6.55;100.00
40315;BME280;26021;45.640;11.302;2024-03-08T07:16:49;98859.41;;;6.20;100.00
40315;BME280;26021;45.640;11.302;2024-03-08T07:19:15;98913.34;;;6.48;100.00
40315;BME280;26021;45.640;11.302;2024-03-08T07:21:44;98902.31;;;6.43;100.00
40315;BME280;26021;45.640;11.302;2024-03-08T07:24:10;98904.84;;;6.44;100.00
40315;BME280;26021;45.640;11.302;2024-03-08T07:26:42;98847.47;;;6.06;100.00
40315;BME280;26021;45.640;11.302;2024-03-08T07:29:07;98913.84;;;6.33;100.00
40315;BME280;26021;45.640;11.302;2024-03-08T07:31:33;98907.41;;;6.36;100.00
40315;BME280;26021;45.640;11.302;2024-03-08T07:34:07;98910.06;;;6.36;100.00
40315;BME280;26021;45.640;11.302;2024-03-08T07:36:35;98909.47;;;6.42;100.00
40315;BME280;26021;45.640;11.302;2024-03-08T07:39:01;98901.28;;;6.53;100.00
40315;BME280;26021;45.640;11.302;2024-03-08T07:41:26;98904.03;;;6.61;100.00
40315;BME280;26021;45.640;11.302;2024-03-08T07:43:53;98898.56;;;6.63;100.00
40315;BME280;26021;45.640;11.302;2024-03-08T07:46:18;98901.78;;;6.39;100.00
40315;BME280;26021;45.640;11.302;2024-03-08T07:48:46;98907.78;;;6.41;100.00
40315;BME280;26021;45.640;11.302;2024-03-08T07:51:12;98903.75;;;6.37;100.00
40315;BME280;26021;45.640;11.302;2024-03-08T07:53:37;98909.38;;;6.34;100.00
40315;BME280;26021;45.640;11.302;2024-03-08T07:56:04;98912.47;;;6.29;100.00
40315;BME280;26021;45.640;11.302;2024-03-08T07:58:34;98913.34;;;6.20;100.00
40315;BME280;26021;45.640;11.302;2024-03-08T08:00:59;98928.34;;;6.12;100.00
40315;BME280;26021;45.640;11.302;2024-03-08T08:03:25;98910.34;;;6.05;100.00
40315;BME280;26021;45.640;11.302;2024-03-08T08:05:52;98917.97;;;6.18;100.00
40315;BME280;26021;45.640;11.302;2024-03-08T08:08:19;98895.41;;;6.04;100.00
40315;BME280;26021;45.640;11.302;2024-03-08T08:10:44;98923.50;;;6.34;100.00
40315;BME280;26021;45.640;11.302;2024-03-08T08:13:09;98920.78;;;6.44;100.00
40315;BME280;26021;45.640;11.302;2024-03-08T08:15:35;98925.09;;;6.45;100.00
40315;BME280;26021;45.640;11.302;2024-03-08T08:18:00;98921.94;;;6.59;100.00
40315;BME280;26021;45.640;11.302;2024-03-08T08:20:27;98926.94;;;6.45;100.00
40315;BME280;26021;45.640;11.302;2024-03-08T08:22:54;98900.28;;;6.36;100.00
40315;BME280;26021;45.640;11.302;2024-03-08T08:25:20;98896.88;;;6.44;100.00
40315;BME280;26021;45.640;11.302;2024-03-08T08:27:46;98940.50;;;6.69;100.00
40315;BME280;26021;45.640;11.302;2024-03-08T08:30:12;98922.22;;;6.56;100.00
40315;BME280;26021;45.640;11.302;2024-03-08T08:32:38;98924.41;;;6.71;100.00
40315;BME280;26021;45.640;11.302;2024-03-08T08:35:07;98912.50;;;6.47;100.00
40315;BME280;26021;45.640;11.302;2024-03-08T08:37:39;98904.56;;;6.20;100.00
40315;BME280;26021;45.640;11.302;2024-03-08T08:40:04;98874.06;;;5.87;100.00
40315;BME280;26021;45.640;11.302;2024-03-08T08:42:40;98927.97;;;6.34;100.00
40315;BME280;26021;45.640;11.302;2024-03-08T08:45:06;98933.31;;;6.52;100.00
40315;BME280;26021;45.640;11.302;2024-03-08T08:47:35;98917.84;;;6.65;100.00
40315;BME280;26021;45.640;11.302;2024-03-08T08:50:01;98918.06;;;6.54;100.00
40315;BME280;26021;45.640;11.302;2024-03-08T08:52:26;98920.72;;;6.54;100.00
40315;BME280;26021;45.640;11.302;2024-03-08T08:54:54;98918.06;;;6.54;100.00
40315;BME280;26021;45.640;11.302;2024-03-08T08:57:27;98913.81;;;6.61;100.00
40315;BME280;26021;45.640;11.302;2024-03-08T08:59:53;98917.53;;;6.68;100.00
40315;BME280;26021;45.640;11.302;2024-03-08T09:02:18;98917.81;;;6.92;100.00
40315;BME280;26021;45.640;11.302;2024-03-08T09:04:46;98924.19;;;6.82;100.00
40315;BME280;26021;45.640;11.302;2024-03-08T09:07:13;98920.00;;;6.79;100.00
40315;BME280;26021;45.640;11.302;2024-03-08T09:09:38;98916.13;;;6.91;100.00
40315;BME280;26021;45.640;11.302;2024-03-08T09:12:04;98900.19;;;6.91;100.00
40315;BME280;26021;45.640;11.302;2024-03-08T09:14:29;98910.00;;;6.91;100.00
40315;BME280;26021;45.640;11.302;2024-03-08T09:16:55;98911.81;;;6.90;100.00
40315;BME280;26021;45.640;11.302;2024-03-08T09:19:20;98908.25;;;6.82;100.00
40315;BME280;26021;45.640;11.302;2024-03-08T09:21:48;98904.38;;;6.94;100.00
40315;BME280;26021;45.640;11.302;2024-03-08T09:24:13;98902.31;;;6.70;100.00
40315;BME280;26021;45.640;11.302;2024-03-08T09:26:39;98912.81;;;6.62;100.00
40315;BME280;26021;45.640;11.302;2024-03-08T09:29:07;98904.47;;;6.57;100.00
40315;BME280;26021;45.640;11.302;2024-03-08T09:31:32;98916.91;;;6.56;100.00
40315;BME280;26021;45.640;11.302;2024-03-08T09:33:58;98911.84;;;6.63;100.00
40315;BME280;26021;45.640;11.302;2024-03-08T09:36:23;98909.19;;;6.63;100.00
40315;BME280;26021;45.640;11.302;2024-03-08T09:38:50;98849.25;;;6.33;100.00
40315;BME280;26021;45.640;11.302;2024-03-08T09:41:15;98910.13;;;6.72;100.00
40315;BME280;26021;45.640;11.302;2024-03-08T09:43:41;98917.00;;;6.64;100.00
40315;BME280;26021;45.640;11.302;2024-03-08T09:46:07;98908.16;;;6.74;100.00
40315;BME280;26021;45.640;11.302;2024-03-08T09:48:32;98771.53;;;5.86;100.00
40315;BME280;26021;45.640;11.302;2024-03-08T09:51:00;98902.34;;;6.60;100.00
40315;BME280;26021;45.640;11.302;2024-03-08T09:53:26;98906.56;;;6.81;100.00
40315;BME280;26021;45.640;11.302;2024-03-08T09:55:51;98859.78;;;6.70;100.00
40315;BME280;26021;45.640;11.302;2024-03-08T09:58:17;98896.53;;;6.92;100.00
40315;BME280;26021;45.640;11.302;2024-03-08T10:00:57;98876.41;;;6.72;100.00
40315;BME280;26021;45.640;11.302;2024-03-08T10:03:23;98845.09;;;6.48;100.00
40315;BME280;26021;45.640;11.302;2024-03-08T10:05:51;98835.59;;;6.46;100.00
40315;BME280;26021;45.640;11.302;2024-03-08T10:08:16;98904.13;;;6.69;100.00
40315;BME280;26021;45.640;11.302;2024-03-08T10:10:42;98868.09;;;6.57;100.00
40315;BME280;26021;45.640;11.302;2024-03-08T10:13:09;98855.72;;;6.48;100.00
40315;BME280;26021;45.640;11.302;2024-03-08T10:15:39;98912.63;;;6.73;100.00
40315;BME280;26021;45.640;11.302;2024-03-08T10:18:05;98894.44;;;6.51;100.00
40315;BME280;26021;45.640;11.302;2024-03-08T10:20:32;98919.63;;;6.47;100.00
40315;BME280;26021;45.640;11.302;2024-03-08T10:23:01;98926.72;;;6.56;100.00
40315;BME280;26021;45.640;11.302;2024-03-08T10:25:29;98861.31;;;6.27;100.00
40315;BME280;26021;45.640;11.302;2024-03-08T10:27:55;98864.97;;;6.26;100.00
40315;BME280;26021;45.640;11.302;2024-03-08T10:30:21;98918.69;;;6.65;100.00
40315;BME280;26021;45.640;11.302;2024-03-08T10:32:48;98857.97;;;6.25;100.00
40315;BME280;26021;45.640;11.302;2024-03-08T10:35:13;98881.44;;;6.30;100.00
40315;BME280;26021;45.640;11.302;2024-03-08T10:37:48;98854.16;;;6.10;100.00
40315;BME280;26021;45.640;11.302;2024-03-08T10:40:19;98909.56;;;6.50;100.00
40315;BME280;26021;45.640;11.302;2024-03-08T10:42:54;98921.16;;;6.49;100.00
40315;BME280;26021;45.640;11.302;2024-03-08T10:48:30;98920.94;;;6.60;100.00
40315;BME280;26021;45.640;11.302;2024-03-08T10:51:02;98925.31;;;6.79;100.00
40315;BME280;26021;45.640;11.302;2024-03-08T10:53:28;98917.69;;;6.66;100.00
40315;BME280;26021;45.640;11.302;2024-03-08T10:55:56;98871.66;;;6.48;100.00
40315;BME280;26021;45.640;11.302;2024-03-08T10:58:26;98849.25;;;6.33;100.00
40315;BME280;26021;45.640;11.302;2024-03-08T11:00:55;98909.97;;;6.73;100.00
40315;BME280;26021;45.640;11.302;2024-03-08T11:06:11;98908.84;;;6.76;100.00
40315;BME280;26021;45.640;11.302;2024-03-08T11:08:40;98912.66;;;6.91;100.00
40315;BME280;26021;45.640;11.302;2024-03-08T11:11:05;98871.94;;;6.73;100.00
40315;BME280;26021;45.640;11.302;2024-03-08T11:13:48;98917.00;;;6.64;100.00
40315;BME280;26021;45.640;11.302;2024-03-08T11:18:58;98906.94;;;6.86;100.00
40315;BME280;26021;45.640;11.302;2024-03-08T11:21:30;98908.63;;;6.87;100.00
40315;BME280;26021;45.640;11.302;2024-03-08T11:24:12;98907.78;;;6.86;100.00
40315;BME280;26021;45.640;11.302;2024-03-08T11:26:39;98894.03;;;6.91;100.00
40315;BME280;26021;45.640;11.302;2024-03-08T11:34:30;98834.63;;;6.47;100.00
40315;BME280;26021;45.640;11.302;2024-03-08T11:36:56;98840.69;;;6.39;100.00
40315;BME280;26021;45.640;11.302;2024-03-08T11:39:22;98822.47;;;6.44;100.00
40315;BME280;26021;45.640;11.302;2024-03-08T11:41:49;98844.38;;;6.74;100.00
40315;BME280;26021;45.640;11.302;2024-03-08T11:44:14;98895.06;;;7.16;100.00
40315;BME280;26021;45.640;11.302;2024-03-08T11:46:42;98904.88;;;7.15;100.00
40315;BME280;26021;45.640;11.302;2024-03-08T11:49:12;98859.56;;;6.81;100.00
40315;BME280;26021;45.640;11.302;2024-03-08T11:51:38;98860.22;;;6.65;100.00
40315;BME280;26021;45.640;11.302;2024-03-08T11:54:03;98840.47;;;6.50;100.00
40315;BME280;26021;45.640;11.302;2024-03-08T11:56:29;98879.06;;;6.72;100.00
40315;BME280;26021;45.640;11.302;2024-03-08T11:58:55;98898.25;;;6.66;100.00
40315;BME280;26021;45.640;11.302;2024-03-08T12:01:22;98886.13;;;6.81;100.00
40315;BME280;26021;45.640;11.302;2024-03-08T12:03:56;98883.25;;;6.75;100.00
40315;BME280;26021;45.640;11.302;2024-03-08T12:06:36;98881.09;;;6.60;100.00
40315;BME280;26021;45.640;11.302;2024-03-08T12:09:09;98879.81;;;6.64;100.00
40315;BME280;26021;45.640;11.302;2024-03-08T12:11:36;98886.09;;;6.63;100.00
40315;BME280;26021;45.640;11.302;2024-03-08T12:14:02;98883.59;;;6.62;100.00
40315;BME280;26021;45.640;11.302;2024-03-08T12:16:27;98873.34;;;6.67;100.00
40315;BME280;26021;45.640;11.302;2024-03-08T12:18:53;98879.91;;;6.73;100.00
40315;BME280;26021;45.640;11.302;2024-03-08T12:21:19;98877.94;;;6.75;100.00
40315;BME280;26021;45.640;11.302;2024-03-08T12:24:05;98878.09;;;6.73;100.00
40315;BME280;26021;45.640;11.302;2024-03-08T12:26:35;98786.19;;;6.17;100.00
40315;BME280;26021;45.640;11.302;2024-03-08T12:29:19;98825.50;;;6.49;100.00
40315;BME280;26021;45.640;11.302;2024-03-08T12:31:57;98847.97;;;6.55;100.00
40315;BME280;26021;45.640;11.302;2024-03-08T12:34:24;98855.88;;;6.64;100.00
40315;BME280;26021;45.640;11.302;2024-03-08T12:36:51;98817.69;;;6.30;100.00
40315;BME280;26021;45.640;11.302;2024-03-08T12:39:19;98853.22;;;6.64;100.00
40315;BME280;26021;45.640;11.302;2024-03-08T12:41:52;98846.69;;;6.59;100.00
40315;BME280;26021;45.640;11.302;2024-03-08T12:44:18;98771.22;;;5.98;100.00
40315;BME280;26021;45.640;11.302;2024-03-08T12:46:46;98843.50;;;6.37;100.00
40315;BME280;26021;45.640;11.302;2024-03-08T12:49:13;98839.25;;;6.62;100.00
40315;BME280;26021;45.640;11.302;2024-03-08T12:51:43;98830.97;;;6.48;100.00
40315;BME280;26021;45.640;11.302;2024-03-08T12:54:08;98837.59;;;6.44;100.00
40315;BME280;26021;45.640;11.302;2024-03-08T12:56:35;98844.34;;;6.91;100.00
40315;BME280;26021;45.640;11.302;2024-03-08T12:59:03;98836.38;;;6.91;100.00
40315;BME280;26021;45.640;11.302;2024-03-08T13:01:30;98831.69;;;6.85;100.00
40315;BME280;26021;45.640;11.302;2024-03-08T13:03:57;98824.41;;;6.69;100.00